sensor_id;sensor_type;location;lat;lon;timestamp;P1;durP1;ratioP1;P2;durP2;ratioP2
52764;SDS011;38650;44.536;18.664;2022-10-31T00:01:32;17.13;;;15.20;;
52764;SDS011;38650;44.536;18.664;2022-10-31T00:03:59;19.52;;;15.23;;
52764;SDS011;38650;44.536;18.664;2022-10-31T00:06:25;14.60;;;12.93;;
52764;SDS011;38650;44.536;18.664;2022-10-31T00:08:51;13.65;;;11.45;;
52764;SDS011;38650;44.536;18.664;2022-10-31T00:11:18;15.60;;;13.70;;
52764;SDS011;38650;44.536;18.664;2022-10-31T00:13:44;19.27;;;15.32;;
52764;SDS011;38650;44.536;18.664;2022-10-31T00:16:17;16.38;;;13.93;;
52764;SDS011;38650;44.536;18.664;2022-10-31T00:18:48;18.08;;;13.90;;
52764;SDS011;38650;44.536;18.664;2022-10-31T00:21:14;15.57;;;13.80;;
52764;SDS011;38650;44.536;18.664;2022-10-31T00:23:40;18.33;;;14.57;;
52764;SDS011;38650;44.536;18.664;2022-10-31T00:26:06;16.58;;;13.82;;
52764;SDS011;38650;44.536;18.664;2022-10-31T00:28:32;16.80;;;13.90;;
52764;SDS011;38650;44.536;18.664;2022-10-31T00:30:58;17.05;;;15.13;;
52764;SDS011;38650;44.536;18.664;2022-10-31T00:33:25;17.08;;;14.23;;
52764;SDS011;38650;44.536;18.664;2022-10-31T00:35:52;17.42;;;14.35;;
52764;SDS011;38650;44.536;18.664;2022-10-31T00:38:17;17.75;;;14.40;;
52764;SDS011;38650;44.536;18.664;2022-10-31T00:40:43;22.67;;;19.02;;
52764;SDS011;38650;44.536;18.664;2022-10-31T00:43:09;21.17;;;17.42;;
52764;SDS011;38650;44.536;18.664;2022-10-31T00:45:34;17.88;;;14.73;;
52764;SDS011;38650;44.536;18.664;2022-10-31T00:48:00;20.15;;;15.80;;
52764;SDS011;38650;44.536;18.664;2022-10-31T00:50:26;23.85;;;19.38;;
52764;SDS011;38650;44.536;18.664;2022-10-31T00:52:51;20.50;;;17.15;;
52764;SDS011;38650;44.536;18.664;2022-10-31T00:55:17;24.45;;;18.70;;
52764;SDS011;38650;44.536;18.664;2022-10-31T00:57:45;20.23;;;16.52;;
52764;SDS011;38650;44.536;18.664;2022-10-31T01:00:12;20.17;;;15.73;;
52764;SDS011;38650;44.536;18.664;2022-10-31T01:02:39;18.63;;;15.77;;
52764;SDS011;38650;44.536;18.664;2022-10-31T01:05:04;18.58;;;15.13;;
52764;SDS011;38650;44.536;18.664;2022-10-31T01:07:30;18.10;;;14.63;;
52764;SDS011;38650;44.536;18.664;2022-10-31T01:09:56;16.80;;;13.63;;
52764;SDS011;38650;44.536;18.664;2022-10-31T01:12:21;16.27;;;13.63;;
52764;SDS011;38650;44.536;18.664;2022-10-31T01:14:47;14.98;;;12.30;;
52764;SDS011;38650;44.536;18.664;2022-10-31T01:17:13;17.48;;;13.68;;
52764;SDS011;38650;44.536;18.664;2022-10-31T01:19:39;15.38;;;12.10;;
52764;SDS011;38650;44.536;18.664;2022-10-31T01:22:05;17.88;;;14.55;;
52764;SDS011;38650;44.536;18.664;2022-10-31T01:24:31;19.05;;;15.13;;
52764;SDS011;38650;44.536;18.664;2022-10-31T01:26:57;16.67;;;13.75;;
52764;SDS011;38650;44.536;18.664;2022-10-31T01:29:23;14.88;;;11.88;;
52764;SDS011;38650;44.536;18.664;2022-10-31T01:31:48;14.30;;;11.55;;
52764;SDS011;38650;44.536;18.664;2022-10-31T01:34:15;11.95;;;10.05;;
52764;SDS011;38650;44.536;18.664;2022-10-31T01:36:41;13.05;;;10.68;;
52764;SDS011;38650;44.536;18.664;2022-10-31T01:39:09;10.77;;;9.05;;
52764;SDS011;38650;44.536;18.664;2022-10-31T01:41:40;9.45;;;8.45;;
52764;SDS011;38650;44.536;18.664;2022-10-31T01:46:43;12.10;;;10.82;;
52764;SDS011;38650;44.536;18.664;2022-10-31T01:49:13;14.15;;;11.70;;
52764;SDS011;38650;44.536;18.664;2022-10-31T01:51:47;15.52;;;11.98;;
52764;SDS011;38650;44.536;18.664;2022-10-31T01:54:16;12.20;;;10.45;;
52764;SDS011;38650;44.536;18.664;2022-10-31T01:56:46;10.93;;;8.93;;
52764;SDS011;38650;44.536;18.664;2022-10-31T01:59:16;16.65;;;13.32;;
52764;SDS011;38650;44.536;18.664;2022-10-31T02:01:44;12.13;;;10.55;;
52764;SDS011;38650;44.536;18.664;2022-10-31T02:04:11;17.92;;;13.77;;
52764;SDS011;38650;44.536;18.664;2022-10-31T02:09:14;15.25;;;11.80;;
52764;SDS011;38650;44.536;18.664;2022-10-31T02:11:41;13.23;;;11.05;;
52764;SDS011;38650;44.536;18.664;2022-10-31T02:14:08;16.30;;;12.60;;
52764;SDS011;38650;44.536;18.664;2022-10-31T02:16:34;14.27;;;12.07;;
52764;SDS011;38650;44.536;18.664;2022-10-31T02:19:00;21.23;;;15.30;;
52764;SDS011;38650;44.536;18.664;2022-10-31T02:31:56;20.00;;;15.52;;
52764;SDS011;38650;44.536;18.664;2022-10-31T02:37:20;12.45;;;11.13;;
52764;SDS011;38650;44.536;18.664;2022-10-31T02:45:57;22.63;;;16.30;;
52764;SDS011;38650;44.536;18.664;2022-10-31T02:48:30;20.25;;;16.40;;
52764;SDS011;38650;44.536;18.664;2022-10-31T02:51:00;18.55;;;14.27;;
52764;SDS011;38650;44.536;18.664;2022-10-31T02:53:31;15.18;;;13.15;;
52764;SDS011;38650;44.536;18.664;2022-10-31T02:56:00;15.45;;;12.40;;
52764;SDS011;38650;44.536;18.664;2022-10-31T02:58:31;15.52;;;12.10;;
52764;SDS011;38650;44.536;18.664;2022-10-31T03:01:07;13.85;;;11.48;;
52764;SDS011;38650;44.536;18.664;2022-10-31T03:09:30;12.98;;;10.77;;
52764;SDS011;38650;44.536;18.664;2022-10-31T03:12:11;12.90;;;10.95;;
52764;SDS011;38650;44.536;18.664;2022-10-31T03:17:24;14.23;;;10.15;;
52764;SDS011;38650;44.536;18.664;2022-10-31T03:19:58;12.05;;;9.45;;
52764;SDS011;38650;44.536;18.664;2022-10-31T03:22:27;10.80;;;9.23;;
52764;SDS011;38650;44.536;18.664;2022-10-31T03:24:55;11.23;;;8.88;;
52764;SDS011;38650;44.536;18.664;2022-10-31T03:27:26;12.30;;;9.65;;
52764;SDS011;38650;44.536;18.664;2022-10-31T03:29:56;12.63;;;9.65;;
52764;SDS011;38650;44.536;18.664;2022-10-31T03:32:27;12.63;;;9.38;;
52764;SDS011;38650;44.536;18.664;2022-10-31T03:34:57;11.35;;;8.63;;
52764;SDS011;38650;44.536;18.664;2022-10-31T03:37:27;9.70;;;7.88;;
52764;SDS011;38650;44.536;18.664;2022-10-31T03:39:55;7.60;;;6.88;;
52764;SDS011;38650;44.536;18.664;2022-10-31T03:42:23;7.68;;;6.78;;
52764;SDS011;38650;44.536;18.664;2022-10-31T03:44:57;8.90;;;8.00;;
52764;SDS011;38650;44.536;18.664;2022-10-31T03:47:33;7.55;;;6.78;;
52764;SDS011;38650;44.536;18.664;2022-10-31T03:50:02;11.18;;;7.93;;
52764;SDS011;38650;44.536;18.664;2022-10-31T03:52:33;10.98;;;7.97;;
52764;SDS011;38650;44.536;18.664;2022-10-31T03:55:05;8.52;;;7.20;;
52764;SDS011;38650;44.536;18.664;2022-10-31T03:58:06;7.93;;;6.97;;
52764;SDS011;38650;44.536;18.664;2022-10-31T04:00:36;9.55;;;7.78;;
52764;SDS011;38650;44.536;18.664;2022-10-31T04:05:34;14.23;;;10.60;;
52764;SDS011;38650;44.536;18.664;2022-10-31T04:08:02;14.60;;;11.02;;
52764;SDS011;38650;44.536;18.664;2022-10-31T04:10:31;13.45;;;9.40;;
52764;SDS011;38650;44.536;18.664;2022-10-31T04:13:00;10.75;;;8.80;;
52764;SDS011;38650;44.536;18.664;2022-10-31T04:15:29;17.92;;;12.38;;
52764;SDS011;38650;44.536;18.664;2022-10-31T04:17:57;13.88;;;10.82;;
52764;SDS011;38650;44.536;18.664;2022-10-31T04:20:32;14.75;;;10.35;;
52764;SDS011;38650;44.536;18.664;2022-10-31T04:22:58;12.05;;;9.43;;
52764;SDS011;38650;44.536;18.664;2022-10-31T04:25:25;14.00;;;9.95;;
52764;SDS011;38650;44.536;18.664;2022-10-31T04:27:50;12.93;;;10.85;;
52764;SDS011;38650;44.536;18.664;2022-10-31T04:30:16;10.10;;;8.52;;
52764;SDS011;38650;44.536;18.664;2022-10-31T04:32:42;12.23;;;9.38;;
52764;SDS011;38650;44.536;18.664;2022-10-31T04:35:07;9.63;;;8.55;;
52764;SDS011;38650;44.536;18.664;2022-10-31T04:37:33;11.43;;;9.32;;
52764;SDS011;38650;44.536;18.664;2022-10-31T04:39:58;11.77;;;9.38;;
52764;SDS011;38650;44.536;18.664;2022-10-31T04:42:24;10.77;;;9.00;;
52764;SDS011;38650;44.536;18.664;2022-10-31T04:44:50;10.23;;;8.05;;
52764;SDS011;38650;44.536;18.664;2022-10-31T04:47:15;9.02;;;7.95;;
52764;SDS011;38650;44.536;18.664;2022-10-31T04:49:41;11.27;;;8.90;;
52764;SDS011;38650;44.536;18.664;2022-10-31T04:52:06;10.90;;;8.40;;
52764;SDS011;38650;44.536;18.664;2022-10-31T04:54:33;9.45;;;8.02;;
52764;SDS011;38650;44.536;18.664;2022-10-31T04:56:58;9.18;;;7.60;;
52764;SDS011;38650;44.536;18.664;2022-10-31T04:59:24;11.30;;;8.82;;
52764;SDS011;38650;44.536;18.664;2022-10-31T05:01:49;11.95;;;9.95;;
52764;SDS011;38650;44.536;18.664;2022-10-31T05:04:15;14.70;;;11.13;;
52764;SDS011;38650;44.536;18.664;2022-10-31T05:06:41;11.85;;;9.70;;
52764;SDS011;38650;44.536;18.664;2022-10-31T05:09:06;10.15;;;8.95;;
52764;SDS011;38650;44.536;18.664;2022-10-31T05:11:32;9.48;;;7.93;;
52764;SDS011;38650;44.536;18.664;2022-10-31T05:13:58;9.57;;;7.68;;
52764;SDS011;38650;44.536;18.664;2022-10-31T05:16:23;13.02;;;8.95;;
52764;SDS011;38650;44.536;18.664;2022-10-31T05:18:49;12.57;;;9.52;;
52764;SDS011;38650;44.536;18.664;2022-10-31T05:21:14;12.75;;;9.30;;
52764;SDS011;38650;44.536;18.664;2022-10-31T05:23:40;12.35;;;9.60;;
52764;SDS011;38650;44.536;18.664;2022-10-31T05:26:06;13.00;;;9.50;;
52764;SDS011;38650;44.536;18.664;2022-10-31T05:28:31;21.17;;;10.52;;
52764;SDS011;38650;44.536;18.664;2022-10-31T05:30:57;12.15;;;9.68;;
52764;SDS011;38650;44.536;18.664;2022-10-31T05:33:22;12.48;;;10.13;;
52764;SDS011;38650;44.536;18.664;2022-10-31T05:35:48;13.80;;;10.15;;
52764;SDS011;38650;44.536;18.664;2022-10-31T05:38:14;12.20;;;9.93;;
52764;SDS011;38650;44.536;18.664;2022-10-31T05:40:39;17.85;;;12.32;;
52764;SDS011;38650;44.536;18.664;2022-10-31T05:43:05;23.88;;;18.90;;
52764;SDS011;38650;44.536;18.664;2022-10-31T05:45:30;24.85;;;16.98;;
52764;SDS011;38650;44.536;18.664;2022-10-31T05:47:57;27.15;;;20.10;;
52764;SDS011;38650;44.536;18.664;2022-10-31T05:50:24;39.20;;;29.58;;
52764;SDS011;38650;44.536;18.664;2022-10-31T05:52:59;27.45;;;21.58;;
52764;SDS011;38650;44.536;18.664;2022-10-31T05:55:27;27.67;;;22.08;;
52764;SDS011;38650;44.536;18.664;2022-10-31T05:57:54;27.33;;;22.35;;
52764;SDS011;38650;44.536;18.664;2022-10-31T06:00:20;26.23;;;21.73;;
52764;SDS011;38650;44.536;18.664;2022-10-31T06:06:08;77.75;;;57.72;;
52764;SDS011;38650;44.536;18.664;2022-10-31T06:08:35;86.30;;;65.80;;
52764;SDS011;38650;44.536;18.664;2022-10-31T06:11:01;106.45;;;78.88;;
52764;SDS011;38650;44.536;18.664;2022-10-31T06:13:26;167.85;;;117.57;;
52764;SDS011;38650;44.536;18.664;2022-10-31T06:15:52;146.77;;;105.28;;
52764;SDS011;38650;44.536;18.664;2022-10-31T06:18:18;112.97;;;85.93;;
52764;SDS011;38650;44.536;18.664;2022-10-31T06:20:44;103.00;;;74.95;;
52764;SDS011;38650;44.536;18.664;2022-10-31T06:23:09;156.57;;;96.82;;
52764;SDS011;38650;44.536;18.664;2022-10-31T06:25:35;85.28;;;59.88;;
52764;SDS011;38650;44.536;18.664;2022-10-31T06:28:00;64.20;;;48.67;;
52764;SDS011;38650;44.536;18.664;2022-10-31T06:30:26;62.25;;;46.60;;
52764;SDS011;38650;44.536;18.664;2022-10-31T06:32:52;59.28;;;44.05;;
52764;SDS011;38650;44.536;18.664;2022-10-31T06:35:17;48.95;;;37.97;;
52764;SDS011;38650;44.536;18.664;2022-10-31T06:37:50;53.55;;;38.17;;
52764;SDS011;38650;44.536;18.664;2022-10-31T06:40:16;50.45;;;35.92;;
52764;SDS011;38650;44.536;18.664;2022-10-31T06:42:42;46.20;;;34.47;;
52764;SDS011;38650;44.536;18.664;2022-10-31T06:45:08;46.40;;;34.92;;
52764;SDS011;38650;44.536;18.664;2022-10-31T06:47:33;52.53;;;36.47;;
52764;SDS011;38650;44.536;18.664;2022-10-31T06:49:59;50.70;;;35.15;;
52764;SDS011;38650;44.536;18.664;2022-10-31T06:52:24;45.25;;;31.30;;
52764;SDS011;38650;44.536;18.664;2022-10-31T06:54:50;51.33;;;37.63;;
52764;SDS011;38650;44.536;18.664;2022-10-31T06:57:16;63.40;;;43.72;;
52764;SDS011;38650;44.536;18.664;2022-10-31T06:59:41;89.07;;;55.97;;
52764;SDS011;38650;44.536;18.664;2022-10-31T07:02:09;69.43;;;47.45;;
52764;SDS011;38650;44.536;18.664;2022-10-31T07:04:35;61.92;;;43.47;;
52764;SDS011;38650;44.536;18.664;2022-10-31T07:07:01;55.58;;;40.50;;
52764;SDS011;38650;44.536;18.664;2022-10-31T07:09:26;55.15;;;40.50;;
52764;SDS011;38650;44.536;18.664;2022-10-31T07:11:52;47.25;;;37.08;;
52764;SDS011;38650;44.536;18.664;2022-10-31T07:14:18;39.17;;;30.35;;
52764;SDS011;38650;44.536;18.664;2022-10-31T07:16:47;36.85;;;30.17;;
52764;SDS011;38650;44.536;18.664;2022-10-31T07:19:15;33.80;;;27.65;;
52764;SDS011;38650;44.536;18.664;2022-10-31T07:21:41;29.17;;;25.27;;
52764;SDS011;38650;44.536;18.664;2022-10-31T07:24:06;39.97;;;28.45;;
52764;SDS011;38650;44.536;18.664;2022-10-31T07:26:32;45.85;;;34.80;;
52764;SDS011;38650;44.536;18.664;2022-10-31T07:28:58;43.20;;;34.58;;
52764;SDS011;38650;44.536;18.664;2022-10-31T07:31:24;43.95;;;34.95;;
52764;SDS011;38650;44.536;18.664;2022-10-31T07:33:50;41.58;;;33.20;;
52764;SDS011;38650;44.536;18.664;2022-10-31T07:36:16;41.92;;;32.15;;
52764;SDS011;38650;44.536;18.664;2022-10-31T07:38:42;35.65;;;29.75;;
52764;SDS011;38650;44.536;18.664;2022-10-31T07:41:08;34.50;;;27.58;;
52764;SDS011;38650;44.536;18.664;2022-10-31T07:43:34;33.10;;;27.15;;
52764;SDS011;38650;44.536;18.664;2022-10-31T07:46:00;29.15;;;25.40;;
52764;SDS011;38650;44.536;18.664;2022-10-31T07:48:25;29.27;;;24.25;;
52764;SDS011;38650;44.536;18.664;2022-10-31T07:50:51;26.20;;;23.35;;
52764;SDS011;38650;44.536;18.664;2022-10-31T07:53:17;25.85;;;23.17;;
52764;SDS011;38650;44.536;18.664;2022-10-31T07:55:42;26.17;;;23.42;;
52764;SDS011;38650;44.536;18.664;2022-10-31T07:58:12;30.58;;;26.10;;
52764;SDS011;38650;44.536;18.664;2022-10-31T08:03:16;34.53;;;28.95;;
52764;SDS011;38650;44.536;18.664;2022-10-31T08:05:46;31.52;;;28.15;;
52764;SDS011;38650;44.536;18.664;2022-10-31T08:08:12;30.23;;;27.05;;
52764;SDS011;38650;44.536;18.664;2022-10-31T08:10:47;33.45;;;30.02;;
52764;SDS011;38650;44.536;18.664;2022-10-31T08:13:16;32.60;;;29.20;;
52764;SDS011;38650;44.536;18.664;2022-10-31T08:15:45;31.83;;;28.42;;
52764;SDS011;38650;44.536;18.664;2022-10-31T08:18:15;28.38;;;25.42;;
52764;SDS011;38650;44.536;18.664;2022-10-31T08:20:43;24.27;;;21.77;;
52764;SDS011;38650;44.536;18.664;2022-10-31T08:23:11;23.80;;;20.73;;
52764;SDS011;38650;44.536;18.664;2022-10-31T08:25:40;24.27;;;21.73;;
52764;SDS011;38650;44.536;18.664;2022-10-31T08:28:09;23.38;;;19.98;;
52764;SDS011;38650;44.536;18.664;2022-10-31T08:30:41;26.58;;;22.00;;
52764;SDS011;38650;44.536;18.664;2022-10-31T08:33:14;20.77;;;18.48;;
52764;SDS011;38650;44.536;18.664;2022-10-31T08:35:45;21.45;;;19.00;;
52764;SDS011;38650;44.536;18.664;2022-10-31T08:38:14;21.60;;;19.35;;
52764;SDS011;38650;44.536;18.664;2022-10-31T08:40:47;26.20;;;23.35;;
52764;SDS011;38650;44.536;18.664;2022-10-31T08:43:15;29.63;;;24.10;;
52764;SDS011;38650;44.536;18.664;2022-10-31T08:45:44;37.53;;;30.45;;
52764;SDS011;38650;44.536;18.664;2022-10-31T08:48:14;33.33;;;27.42;;
52764;SDS011;38650;44.536;18.664;2022-10-31T08:50:43;37.95;;;31.88;;
52764;SDS011;38650;44.536;18.664;2022-10-31T08:53:12;40.38;;;33.22;;
52764;SDS011;38650;44.536;18.664;2022-10-31T08:55:39;40.60;;;34.22;;
52764;SDS011;38650;44.536;18.664;2022-10-31T08:58:06;37.05;;;31.33;;
52764;SDS011;38650;44.536;18.664;2022-10-31T09:00:38;38.45;;;32.42;;
52764;SDS011;38650;44.536;18.664;2022-10-31T09:03:05;41.13;;;31.55;;
52764;SDS011;38650;44.536;18.664;2022-10-31T09:05:37;37.60;;;30.80;;
52764;SDS011;38650;44.536;18.664;2022-10-31T09:08:04;36.58;;;31.73;;
52764;SDS011;38650;44.536;18.664;2022-10-31T09:10:35;35.67;;;31.13;;
52764;SDS011;38650;44.536;18.664;2022-10-31T09:13:06;38.03;;;31.08;;
52764;SDS011;38650;44.536;18.664;2022-10-31T09:15:37;32.30;;;28.48;;
52764;SDS011;38650;44.536;18.664;2022-10-31T09:18:05;31.40;;;27.60;;
52764;SDS011;38650;44.536;18.664;2022-10-31T09:20:32;33.28;;;28.00;;
52764;SDS011;38650;44.536;18.664;2022-10-31T09:23:00;34.80;;;28.83;;
52764;SDS011;38650;44.536;18.664;2022-10-31T09:25:28;36.15;;;31.30;;
52764;SDS011;38650;44.536;18.664;2022-10-31T09:27:55;32.40;;;28.95;;
52764;SDS011;38650;44.536;18.664;2022-10-31T09:30:22;30.10;;;26.95;;
52764;SDS011;38650;44.536;18.664;2022-10-31T09:32:48;31.73;;;27.88;;
52764;SDS011;38650;44.536;18.664;2022-10-31T09:35:19;30.45;;;25.33;;
52764;SDS011;38650;44.536;18.664;2022-10-31T09:37:45;34.85;;;28.83;;
52764;SDS011;38650;44.536;18.664;2022-10-31T09:40:10;28.63;;;25.52;;
52764;SDS011;38650;44.536;18.664;2022-10-31T09:45:47;29.08;;;26.02;;
52764;SDS011;38650;44.536;18.664;2022-10-31T09:51:08;31.85;;;28.45;;
52764;SDS011;38650;44.536;18.664;2022-10-31T09:53:38;30.92;;;27.83;;
52764;SDS011;38650;44.536;18.664;2022-10-31T09:56:15;31.17;;;27.80;;
52764;SDS011;38650;44.536;18.664;2022-10-31T09:58:44;29.65;;;26.65;;
52764;SDS011;38650;44.536;18.664;2022-10-31T10:01:25;30.70;;;27.50;;
52764;SDS011;38650;44.536;18.664;2022-10-31T10:06:57;24.95;;;22.35;;
52764;SDS011;38650;44.536;18.664;2022-10-31T10:09:25;26.65;;;21.63;;
52764;SDS011;38650;44.536;18.664;2022-10-31T10:14:42;27.60;;;24.73;;
52764;SDS011;38650;44.536;18.664;2022-10-31T10:25:45;18.02;;;16.23;;
52764;SDS011;38650;44.536;18.664;2022-10-31T10:28:10;15.13;;;13.52;;
52764;SDS011;38650;44.536;18.664;2022-10-31T10:30:47;14.57;;;13.18;;
52764;SDS011;38650;44.536;18.664;2022-10-31T10:36:00;11.77;;;10.63;;
52764;SDS011;38650;44.536;18.664;2022-10-31T10:38:34;10.90;;;9.75;;
52764;SDS011;38650;44.536;18.664;2022-10-31T10:41:23;9.93;;;8.90;;
52764;SDS011;38650;44.536;18.664;2022-10-31T10:43:52;9.80;;;8.80;;
52764;SDS011;38650;44.536;18.664;2022-10-31T10:46:26;9.82;;;8.88;;
52764;SDS011;38650;44.536;18.664;2022-10-31T10:51:53;8.88;;;7.97;;
52764;SDS011;38650;44.536;18.664;2022-10-31T10:57:21;9.45;;;8.55;;
52764;SDS011;38650;44.536;18.664;2022-10-31T10:59:47;9.38;;;8.40;;
52764;SDS011;38650;44.536;18.664;2022-10-31T11:02:18;9.98;;;9.07;;
52764;SDS011;38650;44.536;18.664;2022-10-31T11:04:48;10.60;;;9.55;;
52764;SDS011;38650;44.536;18.664;2022-10-31T11:07:17;11.85;;;10.65;;
52764;SDS011;38650;44.536;18.664;2022-10-31T11:09:43;11.50;;;10.32;;
52764;SDS011;38650;44.536;18.664;2022-10-31T11:12:10;11.63;;;10.45;;
52764;SDS011;38650;44.536;18.664;2022-10-31T11:14:57;11.82;;;10.70;;
52764;SDS011;38650;44.536;18.664;2022-10-31T11:20:28;12.40;;;10.98;;
52764;SDS011;38650;44.536;18.664;2022-10-31T11:22:46;13.73;;;12.40;;
52764;SDS011;38650;44.536;18.664;2022-10-31T11:27:44;13.02;;;11.02;;
52764;SDS011;38650;44.536;18.664;2022-10-31T11:30:11;12.15;;;10.95;;
52764;SDS011;38650;44.536;18.664;2022-10-31T11:32:42;12.13;;;10.85;;
52764;SDS011;38650;44.536;18.664;2022-10-31T11:35:16;11.35;;;10.15;;
52764;SDS011;38650;44.536;18.664;2022-10-31T11:37:44;10.38;;;9.10;;
52764;SDS011;38650;44.536;18.664;2022-10-31T11:40:15;11.70;;;10.50;;
52764;SDS011;38650;44.536;18.664;2022-10-31T11:42:45;10.23;;;9.15;;
52764;SDS011;38650;44.536;18.664;2022-10-31T11:45:16;10.75;;;9.68;;
52764;SDS011;38650;44.536;18.664;2022-10-31T11:47:47;13.18;;;11.00;;
52764;SDS011;38650;44.536;18.664;2022-10-31T11:50:19;11.85;;;10.65;;
52764;SDS011;38650;44.536;18.664;2022-10-31T11:52:48;12.98;;;11.57;;
52764;SDS011;38650;44.536;18.664;2022-10-31T11:55:17;13.20;;;11.80;;
52764;SDS011;38650;44.536;18.664;2022-10-31T11:57:56;15.15;;;12.73;;
52764;SDS011;38650;44.536;18.664;2022-10-31T12:02:51;15.73;;;13.93;;
52764;SDS011;38650;44.536;18.664;2022-10-31T12:05:29;17.20;;;13.68;;
52764;SDS011;38650;44.536;18.664;2022-10-31T12:07:58;19.42;;;14.93;;
52764;SDS011;38650;44.536;18.664;2022-10-31T12:10:25;18.27;;;14.55;;
52764;SDS011;38650;44.536;18.664;2022-10-31T12:13:14;21.77;;;15.38;;
52764;SDS011;38650;44.536;18.664;2022-10-31T12:16:00;20.48;;;13.32;;
52764;SDS011;38650;44.536;18.664;2022-10-31T12:18:52;17.58;;;14.05;;
52764;SDS011;38650;44.536;18.664;2022-10-31T12:48:46;24.25;;;18.35;;
52764;SDS011;38650;44.536;18.664;2022-10-31T12:51:29;21.88;;;16.83;;
52764;SDS011;38650;44.536;18.664;2022-10-31T12:56:55;30.40;;;22.40;;
52764;SDS011;38650;44.536;18.664;2022-10-31T12:59:31;27.13;;;21.10;;
52764;SDS011;38650;44.536;18.664;2022-10-31T13:04:56;35.47;;;28.20;;
52764;SDS011;38650;44.536;18.664;2022-10-31T13:10:36;34.92;;;24.08;;
52764;SDS011;38650;44.536;18.664;2022-10-31T13:13:12;39.10;;;28.45;;
52764;SDS011;38650;44.536;18.664;2022-10-31T13:15:55;56.85;;;42.20;;
52764;SDS011;38650;44.536;18.664;2022-10-31T13:18:29;70.50;;;50.97;;
52764;SDS011;38650;44.536;18.664;2022-10-31T13:20:57;65.07;;;50.17;;
52764;SDS011;38650;44.536;18.664;2022-10-31T13:23:31;73.35;;;52.85;;
52764;SDS011;38650;44.536;18.664;2022-10-31T13:25:59;67.70;;;52.90;;
52764;SDS011;38650;44.536;18.664;2022-10-31T13:28:36;53.47;;;42.78;;
52764;SDS011;38650;44.536;18.664;2022-10-31T13:31:12;49.85;;;38.42;;
52764;SDS011;38650;44.536;18.664;2022-10-31T13:33:39;48.25;;;37.60;;
52764;SDS011;38650;44.536;18.664;2022-10-31T13:36:32;53.95;;;44.58;;
52764;SDS011;38650;44.536;18.664;2022-10-31T13:44:41;46.53;;;38.05;;
52764;SDS011;38650;44.536;18.664;2022-10-31T13:47:21;41.90;;;33.25;;
52764;SDS011;38650;44.536;18.664;2022-10-31T13:49:47;41.25;;;34.65;;
52764;SDS011;38650;44.536;18.664;2022-10-31T13:54:48;45.30;;;37.33;;
52764;SDS011;38650;44.536;18.664;2022-10-31T13:57:53;42.72;;;34.97;;
52764;SDS011;38650;44.536;18.664;2022-10-31T14:02:50;53.20;;;42.95;;
52764;SDS011;38650;44.536;18.664;2022-10-31T14:07:50;69.53;;;52.35;;
52764;SDS011;38650;44.536;18.664;2022-10-31T14:10:22;88.63;;;62.50;;
52764;SDS011;38650;44.536;18.664;2022-10-31T14:12:52;98.63;;;67.65;;
52764;SDS011;38650;44.536;18.664;2022-10-31T14:15:27;90.88;;;62.97;;
52764;SDS011;38650;44.536;18.664;2022-10-31T14:17:58;95.70;;;70.07;;
52764;SDS011;38650;44.536;18.664;2022-10-31T14:20:42;113.45;;;80.28;;
52764;SDS011;38650;44.536;18.664;2022-10-31T14:23:12;122.15;;;87.50;;
52764;SDS011;38650;44.536;18.664;2022-10-31T14:28:48;96.30;;;74.20;;
52764;SDS011;38650;44.536;18.664;2022-10-31T14:33:58;82.65;;;65.38;;
52764;SDS011;38650;44.536;18.664;2022-10-31T14:36:28;75.57;;;54.50;;
52764;SDS011;38650;44.536;18.664;2022-10-31T14:41:51;43.47;;;36.22;;
52764;SDS011;38650;44.536;18.664;2022-10-31T14:52:31;28.63;;;21.08;;
52764;SDS011;38650;44.536;18.664;2022-10-31T14:54:59;24.05;;;18.67;;
52764;SDS011;38650;44.536;18.664;2022-10-31T14:57:30;25.55;;;19.13;;
52764;SDS011;38650;44.536;18.664;2022-10-31T15:00:03;26.63;;;23.47;;
52764;SDS011;38650;44.536;18.664;2022-10-31T15:02:36;33.25;;;27.88;;
52764;SDS011;38650;44.536;18.664;2022-10-31T15:05:14;28.45;;;24.23;;
52764;SDS011;38650;44.536;18.664;2022-10-31T15:07:53;28.98;;;24.48;;
52764;SDS011;38650;44.536;18.664;2022-10-31T15:10:24;21.83;;;19.23;;
52764;SDS011;38650;44.536;18.664;2022-10-31T15:12:52;28.55;;;21.95;;
52764;SDS011;38650;44.536;18.664;2022-10-31T15:15:19;32.40;;;25.75;;
52764;SDS011;38650;44.536;18.664;2022-10-31T15:17:56;31.55;;;24.35;;
52764;SDS011;38650;44.536;18.664;2022-10-31T15:20:25;42.75;;;34.63;;
52764;SDS011;38650;44.536;18.664;2022-10-31T15:22:54;53.80;;;45.17;;
52764;SDS011;38650;44.536;18.664;2022-10-31T15:25:22;52.72;;;45.47;;
52764;SDS011;38650;44.536;18.664;2022-10-31T15:27:51;39.75;;;33.05;;
52764;SDS011;38650;44.536;18.664;2022-10-31T15:32:47;61.80;;;47.45;;
52764;SDS011;38650;44.536;18.664;2022-10-31T15:35:24;65.70;;;53.22;;
52764;SDS011;38650;44.536;18.664;2022-10-31T15:37:54;59.13;;;50.65;;
52764;SDS011;38650;44.536;18.664;2022-10-31T15:40:22;60.70;;;54.20;;
52764;SDS011;38650;44.536;18.664;2022-10-31T15:43:10;59.00;;;52.70;;
52764;SDS011;38650;44.536;18.664;2022-10-31T15:45:39;77.15;;;69.07;;
52764;SDS011;38650;44.536;18.664;2022-10-31T15:48:18;64.97;;;57.88;;
52764;SDS011;38650;44.536;18.664;2022-10-31T15:50:49;70.72;;;63.38;;
52764;SDS011;38650;44.536;18.664;2022-10-31T15:53:26;69.40;;;62.10;;
52764;SDS011;38650;44.536;18.664;2022-10-31T15:55:58;64.45;;;56.63;;
52764;SDS011;38650;44.536;18.664;2022-10-31T15:58:26;71.30;;;63.60;;
52764;SDS011;38650;44.536;18.664;2022-10-31T16:01:00;73.47;;;65.53;;
52764;SDS011;38650;44.536;18.664;2022-10-31T16:03:28;89.63;;;78.82;;
52764;SDS011;38650;44.536;18.664;2022-10-31T16:05:56;100.55;;;84.05;;
52764;SDS011;38650;44.536;18.664;2022-10-31T16:10:59;101.82;;;82.63;;
52764;SDS011;38650;44.536;18.664;2022-10-31T16:13:37;105.28;;;85.75;;
52764;SDS011;38650;44.536;18.664;2022-10-31T16:16:11;95.35;;;74.85;;
52764;SDS011;38650;44.536;18.664;2022-10-31T16:18:39;123.05;;;89.82;;
52764;SDS011;38650;44.536;18.664;2022-10-31T16:21:06;124.30;;;95.40;;
52764;SDS011;38650;44.536;18.664;2022-10-31T16:23:33;123.55;;;103.57;;
52764;SDS011;38650;44.536;18.664;2022-10-31T16:26:05;126.88;;;97.13;;
52764;SDS011;38650;44.536;18.664;2022-10-31T16:28:31;124.00;;;104.57;;
52764;SDS011;38650;44.536;18.664;2022-10-31T16:30:58;138.50;;;118.20;;
52764;SDS011;38650;44.536;18.664;2022-10-31T16:35:54;133.95;;;110.70;;
52764;SDS011;38650;44.536;18.664;2022-10-31T16:38:21;128.55;;;111.05;;
52764;SDS011;38650;44.536;18.664;2022-10-31T16:40:47;131.23;;;107.60;;
52764;SDS011;38650;44.536;18.664;2022-10-31T16:43:14;140.48;;;122.55;;
52764;SDS011;38650;44.536;18.664;2022-10-31T16:45:46;132.63;;;109.30;;
52764;SDS011;38650;44.536;18.664;2022-10-31T16:48:18;134.18;;;113.38;;
52764;SDS011;38650;44.536;18.664;2022-10-31T16:50:46;156.80;;;127.70;;
52764;SDS011;38650;44.536;18.664;2022-10-31T16:53:13;163.82;;;135.25;;
52764;SDS011;38650;44.536;18.664;2022-10-31T16:58:12;189.73;;;159.63;;